GBLDV EGEW-EGEP
Flight info
| Callsign | GBLDV |
|---|---|
| Flight time | N/A |
| Altitude | 2400 |
| Route | 5921N00257W 5921N00256W 5921N00254W |
| Aircraft | BN2P/L-V/N |
Departure
| Time | N/A |
|---|---|
| Airport | Westray Airport (EGEW) |
Arrival
| Time | 2026-04-27 15:29 |
|---|---|
| Airport | Papa Westray Airport (EGEP) |
| Time | Latitude | Longitude | Altitude | Speed | Heading |
|---|---|---|---|---|---|
| 2026-04-27 15:29 | 59.35106 | -2.95124 | 33 ft | 0 kts | 253° |
| 2026-04-27 15:54 | 59.35107 | -2.95124 | 30 ft | 0 kts | 253° |
| 2026-04-27 15:55 | 59.35107 | -2.95123 | 30 ft | 0 kts | 253° |
| 2026-04-27 16:02 | 59.35106 | -2.95124 | 35 ft | 0 kts | 253° |
| 2026-04-27 16:03 | 59.35107 | -2.95124 | 35 ft | 0 kts | 253° |
| 2026-04-27 16:04 | 59.35107 | -2.95123 | 35 ft | 0 kts | 253° |
| 2026-04-27 16:04 | 59.35107 | -2.95124 | 35 ft | 0 kts | 253° |
| 2026-04-27 16:05 | 59.35106 | -2.95125 | 35 ft | 0 kts | 223° |
| 2026-04-27 16:05 | 59.35094 | -2.95132 | 32 ft | 4 kts | 184° |
| 2026-04-27 16:05 | 59.35031 | -2.95130 | 35 ft | 13 kts | 180° |
| 2026-04-27 16:05 | 59.34998 | -2.95148 | 36 ft | 2 kts | 253° |
| 2026-04-27 16:06 | 59.34990 | -2.95237 | 39 ft | 11 kts | 269° |
| 2026-04-27 16:06 | 59.34987 | -2.95408 | 39 ft | 6 kts | 261° |
| 2026-04-27 16:06 | 59.34983 | -2.95415 | 39 ft | 0 kts | 178° |
| 2026-04-27 16:06 | 59.34983 | -2.95414 | 39 ft | 0 kts | 161° |
| 2026-04-27 16:07 | 59.34979 | -2.95404 | 36 ft | 4 kts | 87° |
| 2026-04-27 16:08 | 59.35010 | -2.94971 | 35 ft | 69 kts | 82° |
| 2026-04-27 16:08 | 59.34961 | -2.93821 | 229 ft | 93 kts | 106° |
| 2026-04-27 16:08 | 59.34613 | -2.92649 | 433 ft | 110 kts | 132° |
| 2026-04-27 16:08 | 59.34084 | -2.91626 | 337 ft | 102 kts | 126° |
| 2026-04-27 16:09 | 59.34207 | -2.90759 | 315 ft | 72 kts | 16° |
| 2026-04-27 16:09 | 59.35282 | -2.89841 | 87 ft | 78 kts | 27° |
| 2026-04-27 16:09 | 59.35661 | -2.89204 | 360 ft | 83 kts | 72° |
| 2026-04-27 16:10 | 59.34585 | -2.89101 | 296 ft | 111 kts | 209° |
| 2026-04-27 16:10 | 59.34922 | -2.90219 | 111 ft | 81 kts | 43° |
| 2026-04-27 16:11 | 59.35266 | -2.89848 | 87 ft | 23 kts | 33° |
| 2026-04-27 16:11 | 59.35311 | -2.89803 | 87 ft | 1 kts | 251° |
| 2026-04-27 16:12 | 59.35130 | -2.89932 | 87 ft | 1 kts | 157° |
| 2026-04-27 16:12 | 59.35122 | -2.89929 | 88 ft | 0 kts | 154° |
| 2026-04-27 16:12 | 59.35120 | -2.89919 | 88 ft | 0 kts | 45° |
| 2026-04-27 16:13 | 59.35121 | -2.89918 | 88 ft | 0 kts | 32° |
| 2026-04-27 16:13 | 59.35151 | -2.89971 | 88 ft | 12 kts | 355° |
| 2026-04-27 16:13 | 59.35214 | -2.89920 | 85 ft | 12 kts | 27° |
| 2026-04-27 16:14 | 59.35300 | -2.89816 | 87 ft | 2 kts | 168° |
| 2026-04-27 16:14 | 59.34504 | -2.90654 | 328 ft | 102 kts | 212° |
| 2026-04-27 16:15 | 59.34093 | -2.93598 | 615 ft | 140 kts | 269° |
| 2026-04-27 16:15 | 59.34216 | -2.96907 | 425 ft | 100 kts | 327° |
| 2026-04-27 16:16 | 59.34983 | -2.95394 | 42 ft | 89 kts | 79° |
| 2026-04-27 16:16 | 59.35007 | -2.94513 | 29 ft | 0 kts | 192° |
| 2026-04-27 16:17 | 59.35010 | -2.94794 | 36 ft | 31 kts | 268° |
| 2026-04-27 16:17 | 59.35034 | -2.95130 | 35 ft | 5 kts | 356° |
| 2026-04-27 16:18 | 59.35099 | -2.95123 | 32 ft | 9 kts | 7° |
| 2026-04-27 16:18 | 59.35036 | -2.95130 | 34 ft | 18 kts | 179° |
| 2026-04-27 16:19 | 59.34987 | -2.95268 | 39 ft | 15 kts | 267° |
| 2026-04-27 16:19 | 59.34986 | -2.95417 | 38 ft | 1 kts | 224° |
| 2026-04-27 16:20 | 59.34979 | -2.93762 | 167 ft | 96 kts | 112° |
| 2026-04-27 16:20 | 59.34439 | -2.92984 | 223 ft | 96 kts | 153° |
| 2026-04-27 16:20 | 59.33997 | -2.91250 | 272 ft | 74 kts | 42° |
| 2026-04-27 16:21 | 59.34434 | -2.90722 | 180 ft | 76 kts | 29° |
| 2026-04-27 16:21 | 59.35298 | -2.89807 | 87 ft | 0 kts | 324° |
| 2026-04-27 16:22 | 59.35299 | -2.89808 | 87 ft | 3 kts | 321° |
| 2026-04-27 16:22 | 59.35304 | -2.89816 | 85 ft | 0 kts | 322° |
| 2026-04-27 16:24 | 59.35304 | -2.89817 | 84 ft | 2 kts | 313° |
| 2026-04-27 16:25 | 59.35107 | -2.95124 | 33 ft | 0 kts | 253° |
| 2026-04-27 16:27 | 59.35083 | -2.95131 | 33 ft | 3 kts | 176° |
| 2026-04-27 16:27 | 59.34990 | -2.95336 | 39 ft | 19 kts | 261° |
| 2026-04-27 16:28 | 59.34979 | -2.95421 | 38 ft | 0 kts | 148° |
| 2026-04-27 16:28 | 59.34978 | -2.95402 | 39 ft | 0 kts | 75° |
| 2026-04-27 16:29 | 59.34986 | -2.95313 | 39 ft | 30 kts | 79° |
| 2026-04-27 16:30 | 59.34953 | -2.93295 | 235 ft | 84 kts | 112° |
| 2026-04-27 16:30 | 59.34178 | -2.91776 | 201 ft | 68 kts | 83° |
| 2026-04-27 16:31 | 59.35227 | -2.89902 | 85 ft | 57 kts | 28° |
| 2026-04-27 16:31 | 59.35310 | -2.89800 | 87 ft | 1 kts | 284° |
| 2026-04-27 16:32 | 59.35150 | -2.89963 | 88 ft | 10 kts | 183° |
| 2026-04-27 16:32 | 59.35136 | -2.89937 | 87 ft | 2 kts | 104° |
| 2026-04-27 16:33 | 59.35140 | -2.89893 | 87 ft | 0 kts | 113° |
| 2026-04-27 16:33 | 59.35139 | -2.89891 | 87 ft | 1 kts | 161° |
| 2026-04-27 16:33 | 59.35131 | -2.89930 | 87 ft | 7 kts | 296° |
| 2026-04-27 16:33 | 59.35121 | -2.89993 | 88 ft | 10 kts | 216° |
| 2026-04-27 16:34 | 59.34987 | -2.90134 | 91 ft | 22 kts | 204° |
| 2026-04-27 16:34 | 59.34910 | -2.90242 | 92 ft | 1 kts | 180° |
| 2026-04-27 16:34 | 59.34909 | -2.90240 | 92 ft | 0 kts | 142° |
| 2026-04-27 16:34 | 59.34908 | -2.90235 | 93 ft | 2 kts | 101° |
| 2026-04-27 16:35 | 59.34965 | -2.90171 | 92 ft | 23 kts | 28° |
| 2026-04-27 16:35 | 59.35187 | -2.89935 | 84 ft | 48 kts | 24° |
| 2026-04-27 16:35 | 59.35851 | -2.89355 | 63 ft | 52 kts | 14° |